Buena Vista, CO (81211)

8:27 PM MDT on August 04, 2015 (GMT -0600)
NW of Buena Vista | | Change Station
CLOSE
Current Station
Personal Weather Station
Location: Buena Vista, CO
Elevation: 8200 ft
Nearby Weather Stations

Elev 8200 ft 38.86 °N, 106.17 °W | Updated 3 minutes ago

Scattered Clouds
Scattered Clouds
66.3 °F
Feels Like 66.3 °F
N
3.0
Wind Variable Wind from West
Gusts 5.0 mph

Today
High -- | Low -- °F
--% Chance of Precip.
Yesterday
High -- | Low -- °F
Precip. -- in
6:08 AM 8:12 PM
Waning Gibbous, 72% visible
Pressure 30.34 in
Visibility 10.0 miles
Clouds Scattered Clouds 12000 ft
Dew Point 41 °F
Humidity 40%
Rainfall 0.00 in
Snow Depth Not available.
UV 0 out of 12
Pollen 6.10 out of 12
Air Quality Not available.
Flu Activity Not available.
METAR KAEJ 050215Z AUTO 32006KT 10SM SCT120 20/02 A3034 RMK AO2 T01950022

More Conditions Fewer Conditions

Pressure 30.34 in
Visibility 10.0 miles
Clouds Scattered Clouds 12000 ft
Dew Point 41 °F
Humidity 40%
Rainfall 0.00 in
Snow Depth Not available.
UV 0 out of 12
Pollen 6.10 out of 12
Air Quality Not available.
Flu Activity Not available.
METAR KAEJ 050215Z AUTO 32006KT 10SM SCT120 20/02 A3034 RMK AO2 T01950022

More Conditions Fewer Conditions

10-Day Weather Forecast

×

Almanac

Astronomy

Aug. 04, 2015 Rise Set
Actual Time
Civil Twilight
Nautical Twilight
Astronomical Twilight
Moon
Length of Visible Light
Length of Day
Tomorrow will be .
, % of the Moon is Illuminated

Today's Extremes

State Highs State Lows

Community

WunderPhotos

Upload Photos

1,844,084 photos uploaded!

WunderBlogs® & News

Nearby

Air Quality

  Air Quality AQ Index Pollutant
Not available.

Snow Depth

Station Depth Elevation

Earthquake Activity

City Distance Mag. Time & Date
Minimum magnitude displayed is 2.5.

Coastal Water Temperatures

Place Temperature

Stations

Nearby Weather Stations

Station Location Temp. Windchill Dew Point Humidity Wind Precip. Elev Updated Type